Time;durP1;ratioP1;P1;durP2;ratioP2;P2;SDS_P1;SDS_P2;PMS_P1;PMS_P2;Temp;Humidity;BMP_temperature;BMP_pressure;BME280_temperature;BME280_humidity;BME280_pressure;Samples;Min_cycle;Max_cycle;Signal;HPM_P1;HPM_P2
2022/11/27 00:01:22;;;;;;;11.20;7.60;;;5.60;99.90;;;;;;4977949;28;20180;-69
2022/11/27 00:03:48;;;;;;;7.47;6.30;;;5.60;99.90;;;;;;4977870;28;20254;-69
2022/11/27 00:06:17;;;;;;;15.37;7.40;;;5.60;99.90;;;;;;4977958;28;20191;-68
2022/11/27 00:08:44;;;;;;;10.50;6.70;;;5.50;99.90;;;;;;5000244;28;20180;-70
2022/11/27 00:11:12;;;;;;;11.90;6.90;;;5.40;99.90;;;;;;4995660;28;20201;-69
2022/11/27 00:13:38;;;;;;;7.83;6.60;;;5.50;99.90;;;;;;4995518;28;20203;-69
2022/11/27 00:16:05;;;;;;;11.53;7.03;;;5.40;99.90;;;;;;4995818;28;20165;-69
2022/11/27 00:18:31;;;;;;;10.43;7.10;;;5.40;99.90;;;;;;4995112;28;20188;-69
2022/11/27 00:21:10;;;;;;;11.83;6.67;;;5.40;99.90;;;;;;4995484;28;20684;-69
2022/11/27 00:23:36;;;;;;;7.50;6.70;;;5.40;99.90;;;;;;4977672;28;20200;-69
2022/11/27 00:26:03;;;;;;;10.07;7.17;;;5.40;99.90;;;;;;4977654;28;20191;-69
2022/11/27 00:28:29;;;;;;;10.73;7.13;;;5.40;99.90;;;;;;5011950;28;20184;-69
2022/11/27 00:30:59;;;;;;;9.00;6.70;;;5.40;99.90;;;;;;5014292;28;20196;-69
2022/11/27 00:33:25;;;;;;;12.60;7.07;;;5.30;99.90;;;;;;4996801;28;20207;-68
2022/11/27 00:35:51;;;;;;;9.07;7.20;;;5.30;99.90;;;;;;5015024;28;20188;-68
2022/11/27 00:38:16;;;;;;;8.77;7.00;;;5.30;99.90;;;;;;5003472;28;20771;-69
2022/11/27 00:40:42;;;;;;;11.20;7.23;;;5.30;99.90;;;;;;4996217;28;20283;-68
2022/11/27 00:43:08;;;;;;;8.80;6.93;;;5.30;99.90;;;;;;4994928;28;20208;-68
2022/11/27 00:45:34;;;;;;;9.50;7.00;;;5.30;99.90;;;;;;4977352;28;20296;-68
2022/11/27 00:47:59;;;;;;;18.80;7.90;;;5.30;99.90;;;;;;4994585;28;20212;-68
2022/11/27 00:50:25;;;;;;;12.17;7.03;;;5.30;99.90;;;;;;4994793;28;20246;-69
2022/11/27 00:52:51;;;;;;;10.30;6.93;;;5.30;99.90;;;;;;4994928;28;20183;-69
2022/11/27 00:55:17;;;;;;;7.83;7.03;;;5.20;99.90;;;;;;4977821;28;20184;-69
2022/11/27 00:57:42;;;;;;;12.07;7.67;;;5.20;99.90;;;;;;4990508;28;20245;-69
2022/11/27 01:00:09;;;;;;;10.90;6.80;;;5.20;99.90;;;;;;4998171;28;20200;-69
2022/11/27 01:02:35;;;;;;;8.10;6.47;;;5.20;99.90;;;;;;5002102;28;20187;-69
2022/11/27 01:05:00;;;;;;;10.57;7.53;;;5.20;99.90;;;;;;4977937;28;20541;-68
2022/11/27 01:07:26;;;;;;;8.23;6.43;;;5.20;99.90;;;;;;4995040;28;20231;-68
2022/11/27 01:09:52;;;;;;;11.93;7.30;;;5.20;99.90;;;;;;5008167;28;20574;-68
2022/11/27 01:12:17;;;;;;;8.30;7.03;;;5.10;99.90;;;;;;4985283;28;20190;-68
2022/11/27 01:14:43;;;;;;;11.57;7.10;;;5.10;99.90;;;;;;5013976;28;20183;-68
2022/11/27 01:17:09;;;;;;;11.40;6.93;;;5.10;99.90;;;;;;5012748;28;20530;-68
2022/11/27 01:19:36;;;;;;;12.43;7.80;;;5.10;99.90;;;;;;5009016;28;20203;-68
2022/11/27 01:22:01;;;;;;;12.70;7.60;;;5.10;99.90;;;;;;5014300;28;20195;-68
2022/11/27 01:24:27;;;;;;;10.07;7.20;;;5.10;99.90;;;;;;5014155;28;20199;-68
2022/11/27 01:26:53;;;;;;;10.10;6.70;;;5.00;99.90;;;;;;4994293;28;20704;-68
2022/11/27 01:29:18;;;;;;;7.70;6.90;;;5.00;99.90;;;;;;4994142;28;20310;-68
2022/11/27 01:31:44;;;;;;;10.67;7.63;;;5.10;99.90;;;;;;4994216;28;20205;-68
2022/11/27 01:34:14;;;;;;;8.83;6.90;;;5.00;99.90;;;;;;4993883;28;20188;-68
2022/11/27 01:36:40;;;;;;;9.70;7.37;;;5.00;99.90;;;;;;4993938;28;20198;-68
2022/11/27 01:39:06;;;;;;;10.47;7.50;;;5.00;99.90;;;;;;5004902;28;20584;-68
2022/11/27 01:41:34;;;;;;;8.47;6.97;;;5.00;99.90;;;;;;5013979;28;20570;-68
2022/11/27 01:44:21;;;;;;;8.90;6.97;;;5.00;99.90;;;;;;5012798;28;20207;-68
2022/11/27 01:47:02;;;;;;;9.57;7.17;;;5.00;99.90;;;;;;5011826;28;20180;-68
2022/11/27 01:49:50;;;;;;;8.90;7.53;;;5.00;99.90;;;;;;5013125;28;20265;-68
2022/11/27 01:52:39;;;;;;;14.07;7.73;;;5.00;99.90;;;;;;4993749;28;20679;-68
2022/11/27 01:55:07;;;;;;;9.13;7.33;;;5.00;99.90;;;;;;4994070;28;20203;-68
2022/11/27 01:57:40;;;;;;;10.17;7.10;;;5.00;99.90;;;;;;4976359;28;20180;-68
2022/11/27 02:00:08;;;;;;;9.83;7.70;;;5.00;99.90;;;;;;4993851;28;20296;-68
2022/11/27 02:02:34;;;;;;;12.20;7.77;;;5.00;99.90;;;;;;4996998;28;20191;-68
2022/11/27 02:05:00;;;;;;;9.43;7.60;;;5.10;99.90;;;;;;5013663;28;20176;-68
2022/11/27 02:07:26;;;;;;;10.93;7.20;;;5.10;99.90;;;;;;5013303;28;20302;-68
2022/11/27 02:09:52;;;;;;;10.37;7.60;;;5.00;99.90;;;;;;5013116;28;20294;-68
2022/11/27 02:13:06;;;;;;;10.13;7.33;;;5.00;99.90;;;;;;5013546;28;20246;-68
2022/11/27 02:16:13;;;;;;;12.87;7.30;;;5.00;99.90;;;;;;4986694;28;20183;-68
2022/11/27 02:18:53;;;;;;;10.27;7.40;;;5.00;99.90;;;;;;5016580;28;20179;-68
2022/11/27 02:21:30;;;;;;;14.37;7.30;;;5.00;99.90;;;;;;5016980;28;20160;-68
2022/11/27 02:24:32;;;;;;;10.10;7.53;;;5.00;99.90;;;;;;5016626;28;20222;-68
2022/11/27 02:27:33;;;;;;;7.80;6.70;;;5.00;99.90;;;;;;5012984;28;20695;-68
2022/11/27 02:30:01;;;;;;;10.20;7.57;;;4.80;99.90;;;;;;4999194;28;20676;-68
2022/11/27 02:32:47;;;;;;;10.40;7.80;;;4.80;99.90;;;;;;5012490;28;20641;-68
2022/11/27 02:35:16;;;;;;;9.10;7.27;;;4.80;99.90;;;;;;5009652;28;20529;-68
2022/11/27 02:37:52;;;;;;;9.60;7.57;;;4.80;99.90;;;;;;4999342;28;20206;-68
2022/11/27 02:41:06;;;;;;;8.03;7.07;;;4.80;99.90;;;;;;4997834;28;20681;-68
2022/11/27 02:43:43;;;;;;;9.27;8.30;;;4.80;99.90;;;;;;4965798;28;20223;-68
2022/11/27 02:46:10;;;;;;;12.13;7.93;;;4.80;99.90;;;;;;5016580;28;20179;-68
2022/11/27 02:48:47;;;;;;;8.60;7.70;;;4.80;99.90;;;;;;4998188;28;20234;-68
2022/11/27 02:51:14;;;;;;;13.60;7.70;;;4.90;99.90;;;;;;5016552;28;20160;-68
2022/11/27 02:53:54;;;;;;;14.13;7.80;;;4.90;99.90;;;;;;5016101;28;20230;-68
2022/11/27 02:56:23;;;;;;;12.37;7.90;;;4.90;99.90;;;;;;5015809;28;20191;-68
2022/11/27 02:58:51;;;;;;;10.70;7.40;;;4.90;99.90;;;;;;4998162;28;20172;-68
2022/11/27 03:01:19;;;;;;;11.63;7.80;;;4.90;99.90;;;;;;5016178;28;20199;-68
2022/11/27 03:03:50;;;;;;;15.37;7.77;;;4.90;99.90;;;;;;5015557;28;20199;-68
2022/11/27 03:06:25;;;;;;;13.80;7.50;;;4.90;99.90;;;;;;4998260;28;20649;-68
2022/11/27 03:09:02;;;;;;;8.47;7.50;;;4.90;99.90;;;;;;5015338;28;20219;-68
2022/11/27 03:11:31;;;;;;;8.23;7.43;;;4.90;99.90;;;;;;5016263;28;20167;-68
2022/11/27 03:14:01;;;;;;;10.03;7.27;;;4.90;99.90;;;;;;5016527;28;20179;-68
2022/11/27 03:16:51;;;;;;;9.37;7.17;;;4.90;99.90;;;;;;5016124;28;20182;-68
2022/11/27 03:19:45;;;;;;;10.10;7.87;;;4.80;99.90;;;;;;4995151;28;20553;-68
2022/11/27 03:22:11;;;;;;;12.70;8.20;;;4.80;99.90;;;;;;4985422;28;20192;-68
2022/11/27 03:24:37;;;;;;;9.37;7.47;;;4.80;99.90;;;;;;4995316;28;20200;-68
2022/11/27 03:27:04;;;;;;;12.00;7.50;;;4.80;99.90;;;;;;4980156;28;20268;-68
2022/11/27 03:29:52;;;;;;;9.00;7.47;;;4.90;99.90;;;;;;4997910;28;20206;-68
2022/11/27 03:32:18;;;;;;;12.30;7.60;;;4.90;99.90;;;;;;4997873;28;20168;-68
2022/11/27 03:34:45;;;;;;;8.10;7.30;;;5.00;99.90;;;;;;5015281;28;20626;-68
2022/11/27 03:37:11;;;;;;;9.80;7.63;;;5.00;99.90;;;;;;4998865;28;20205;-68
2022/11/27 03:39:37;;;;;;;13.73;7.70;;;5.00;99.90;;;;;;5001595;28;20287;-68
2022/11/27 03:42:25;;;;;;;12.87;7.30;;;5.00;99.90;;;;;;4995752;28;20204;-68
2022/11/27 03:45:02;;;;;;;8.80;7.80;;;5.00;99.90;;;;;;4995658;28;20216;-68
2022/11/27 03:47:48;;;;;;;13.63;7.90;;;5.00;99.90;;;;;;4995922;28;20191;-68
2022/11/27 03:50:45;;;;;;;8.63;7.30;;;5.10;99.90;;;;;;4995628;28;20200;-68
2022/11/27 03:53:31;;;;;;;13.27;8.17;;;5.10;99.90;;;;;;5014915;28;20310;-68
2022/11/27 03:56:08;;;;;;;9.93;7.67;;;5.10;99.90;;;;;;5015346;28;20226;-68
2022/11/27 03:58:59;;;;;;;11.53;7.27;;;5.20;99.90;;;;;;5014933;28;20179;-68
2022/11/27 04:01:26;;;;;;;11.17;7.77;;;5.20;99.90;;;;;;4997234;28;20184;-68
2022/11/27 04:03:52;;;;;;;9.97;7.43;;;5.30;99.90;;;;;;5014757;28;20200;-68
2022/11/27 04:06:18;;;;;;;12.07;8.27;;;5.30;99.90;;;;;;5014675;28;20184;-68
2022/11/27 04:08:46;;;;;;;9.60;7.83;;;5.30;99.90;;;;;;5014935;28;20179;-68
2022/11/27 04:11:12;;;;;;;8.57;7.73;;;5.30;99.90;;;;;;5007658;28;20184;-68
2022/11/27 04:13:38;;;;;;;10.33;7.03;;;5.30;99.90;;;;;;4996237;28;20191;-68
2022/11/27 04:16:04;;;;;;;13.60;7.50;;;5.40;99.90;;;;;;4996862;28;20180;-68
2022/11/27 04:18:30;;;;;;;17.97;8.20;;;5.30;99.90;;;;;;5014786;28;20547;-68
2022/11/27 04:20:56;;;;;;;13.00;7.30;;;5.40;99.90;;;;;;4996909;28;20278;-68
2022/11/27 04:23:21;;;;;;;10.27;7.83;;;5.40;99.90;;;;;;5014258;28;20203;-68
2022/11/27 04:25:48;;;;;;;9.10;6.40;;;5.40;99.90;;;;;;4996413;28;20211;-68
2022/11/27 04:28:16;;;;;;;8.70;6.97;;;5.40;99.90;;;;;;4994806;28;20180;-68
2022/11/27 04:30:42;;;;;;;11.40;7.97;;;5.40;99.90;;;;;;4977429;28;20696;-68
2022/11/27 04:33:08;;;;;;;12.50;8.10;;;5.40;99.90;;;;;;4994820;28;20200;-68
2022/11/27 04:35:33;;;;;;;12.60;7.10;;;5.40;99.90;;;;;;4994752;28;20665;-68
2022/11/27 04:37:59;;;;;;;10.70;7.83;;;5.40;99.90;;;;;;4996807;28;20179;-68
2022/11/27 04:40:25;;;;;;;11.47;7.30;;;5.40;99.90;;;;;;5014297;28;20200;-68
2022/11/27 04:42:51;;;;;;;12.40;7.70;;;5.40;99.90;;;;;;5013613;28;20583;-68
2022/11/27 04:45:17;;;;;;;12.73;7.63;;;5.40;99.90;;;;;;5014568;28;20176;-68
2022/11/27 04:47:42;;;;;;;7.80;7.00;;;5.50;99.90;;;;;;5014039;28;20226;-68
2022/11/27 04:50:09;;;;;;;10.47;7.10;;;5.50;99.90;;;;;;4991699;28;20580;-68
2022/11/27 04:52:35;;;;;;;8.83;7.63;;;5.50;99.90;;;;;;4987360;28;20555;-68
2022/11/27 04:55:01;;;;;;;10.37;7.70;;;5.50;99.90;;;;;;4996234;28;20184;-68
2022/11/27 04:57:27;;;;;;;12.57;7.73;;;5.40;99.90;;;;;;4996394;28;20208;-68
2022/11/27 04:59:52;;;;;;;8.00;7.20;;;5.50;99.90;;;;;;5013918;28;20263;-68
2022/11/27 05:02:18;;;;;;;12.33;7.63;;;5.40;99.90;;;;;;5013748;28;20202;-68
2022/11/27 05:04:44;;;;;;;11.40;7.80;;;5.40;99.90;;;;;;4996235;28;20207;-69
2022/11/27 05:07:10;;;;;;;8.60;6.90;;;5.40;99.90;;;;;;5014074;28;20640;-69
2022/11/27 05:09:36;;;;;;;8.37;6.63;;;5.40;99.90;;;;;;5013639;28;20219;-69
2022/11/27 05:12:03;;;;;;;12.93;8.23;;;5.40;99.90;;;;;;5007920;28;20200;-69
2022/11/27 05:14:29;;;;;;;10.23;6.80;;;5.40;99.90;;;;;;4976890;28;20188;-69
2022/11/27 05:16:57;;;;;;;9.93;7.07;;;5.30;99.90;;;;;;4995163;28;20239;-69
2022/11/27 05:19:25;;;;;;;7.53;6.83;;;5.30;99.90;;;;;;4996146;28;20203;-69
2022/11/27 05:21:52;;;;;;;11.70;7.23;;;5.30;99.90;;;;;;5013168;28;20603;-69
2022/11/27 05:24:20;;;;;;;12.63;7.77;;;5.30;99.90;;;;;;4996134;28;20203;-69
2022/11/27 05:26:46;;;;;;;8.13;7.13;;;5.30;99.90;;;;;;5002596;28;20192;-69
2022/11/27 05:29:12;;;;;;;13.53;7.43;;;5.40;99.90;;;;;;4993962;28;20616;-69
2022/11/27 05:31:38;;;;;;;11.50;7.23;;;5.40;99.90;;;;;;4994353;28;20630;-69
2022/11/27 05:34:04;;;;;;;10.43;6.97;;;5.40;99.90;;;;;;4976366;28;20191;-69
2022/11/27 05:36:31;;;;;;;8.60;7.27;;;5.40;99.90;;;;;;4994050;28;20181;-69
2022/11/27 05:38:57;;;;;;;11.33;7.30;;;5.40;99.90;;;;;;5006287;28;20199;-69
2022/11/27 05:41:23;;;;;;;10.53;7.47;;;5.40;99.90;;;;;;5013615;28;20306;-69
2022/11/27 05:43:49;;;;;;;14.40;8.50;;;5.40;99.90;;;;;;4977087;28;20208;-69
2022/11/27 05:46:18;;;;;;;8.40;7.43;;;5.40;99.90;;;;;;4994038;28;20177;-69
2022/11/27 05:48:43;;;;;;;11.40;7.93;;;5.50;99.90;;;;;;4979849;28;20180;-69
2022/11/27 05:51:09;;;;;;;12.17;7.30;;;5.50;99.90;;;;;;4997901;28;20739;-69
2022/11/27 05:53:35;;;;;;;9.57;7.20;;;5.50;99.90;;;;;;5014029;28;20234;-69
2022/11/27 05:56:07;;;;;;;10.60;7.73;;;5.60;99.90;;;;;;5014610;28;20196;-69
2022/11/27 05:58:32;;;;;;;10.07;7.43;;;5.60;99.90;;;;;;4997745;28;20173;-69
2022/11/27 06:00:59;;;;;;;10.30;7.53;;;5.60;99.90;;;;;;4997665;28;20575;-69
2022/11/27 06:03:25;;;;;;;11.03;8.30;;;5.60;99.90;;;;;;4979853;28;20768;-69
2022/11/27 06:05:51;;;;;;;12.63;7.83;;;5.60;99.90;;;;;;4998011;28;20256;-69
2022/11/27 06:08:16;;;;;;;9.57;8.00;;;5.70;99.90;;;;;;4994885;28;20195;-69
2022/11/27 06:10:42;;;;;;;13.80;8.47;;;5.70;99.90;;;;;;5016902;28;20222;-69
2022/11/27 06:13:08;;;;;;;10.53;7.93;;;5.70;99.90;;;;;;5016345;28;20195;-67
2022/11/27 06:15:36;;;;;;;11.50;7.83;;;5.70;99.90;;;;;;5016674;28;20639;-66
2022/11/27 06:18:02;;;;;;;13.83;8.47;;;5.70;99.90;;;;;;5016633;28;20188;-67
2022/11/27 06:20:27;;;;;;;11.63;7.60;;;5.70;99.90;;;;;;4998807;28;20211;-66
2022/11/27 06:22:55;;;;;;;9.73;8.10;;;5.70;99.90;;;;;;5016795;28;20204;-66
2022/11/27 06:25:21;;;;;;;13.07;8.23;;;5.80;99.90;;;;;;5017007;28;20180;-67
2022/11/27 06:27:47;;;;;;;13.43;8.80;;;5.80;99.90;;;;;;5016364;28;20183;-66
2022/11/27 06:30:13;;;;;;;12.37;8.73;;;5.80;99.90;;;;;;5016644;28;20564;-66
2022/11/27 06:32:39;;;;;;;13.77;8.97;;;5.80;99.90;;;;;;5007294;28;20182;-66
2022/11/27 06:35:05;;;;;;;12.47;8.57;;;5.90;99.90;;;;;;4996935;28;20172;-67
2022/11/27 06:37:30;;;;;;;12.13;9.07;;;5.90;99.90;;;;;;4997184;28;20219;-66
2022/11/27 06:39:56;;;;;;;12.10;9.07;;;6.00;99.90;;;;;;5014572;28;20249;-67
2022/11/27 06:42:22;;;;;;;16.23;9.70;;;6.00;99.90;;;;;;4993155;28;20725;-66
2022/11/27 06:44:47;;;;;;;12.33;9.17;;;6.10;99.90;;;;;;4997021;28;20259;-66
2022/11/27 06:47:13;;;;;;;11.40;8.67;;;6.10;99.90;;;;;;4996830;28;20580;-67
2022/11/27 06:49:39;;;;;;;11.17;8.60;;;6.10;99.90;;;;;;4996640;28;20200;-67
2022/11/27 06:52:05;;;;;;;13.43;8.80;;;6.10;99.90;;;;;;4979430;28;20275;-66
2022/11/27 06:54:30;;;;;;;11.60;8.83;;;6.20;99.90;;;;;;4979023;28;20181;-67
2022/11/27 06:56:57;;;;;;;12.00;8.20;;;6.20;99.90;;;;;;4980059;28;20189;-67
2022/11/27 06:59:23;;;;;;;9.93;8.30;;;6.20;99.90;;;;;;5014772;28;20199;-67
2022/11/27 07:01:49;;;;;;;13.43;8.63;;;6.20;99.90;;;;;;5015847;28;20184;-67
2022/11/27 07:04:15;;;;;;;11.97;8.67;;;6.20;99.90;;;;;;4998201;28;20218;-67
2022/11/27 07:06:42;;;;;;;12.17;8.70;;;6.20;99.90;;;;;;5007046;28;20539;-67
2022/11/27 07:09:09;;;;;;;10.80;8.77;;;6.30;99.90;;;;;;5007490;28;20668;-67
2022/11/27 07:11:35;;;;;;;14.77;8.20;;;6.30;99.90;;;;;;5016425;28;20575;-67
2022/11/27 07:14:03;;;;;;;12.27;8.60;;;6.30;99.90;;;;;;4998542;28;20578;-67
2022/11/27 07:16:32;;;;;;;13.27;8.50;;;6.30;99.90;;;;;;4991876;28;20556;-69
2022/11/27 07:19:00;;;;;;;13.07;8.80;;;6.30;99.90;;;;;;4978847;28;20196;-69
2022/11/27 07:21:26;;;;;;;11.30;8.97;;;6.30;99.90;;;;;;4979030;28;20192;-69
2022/11/27 07:23:52;;;;;;;8.97;8.07;;;6.30;99.90;;;;;;4978726;28;20204;-69
2022/11/27 07:26:21;;;;;;;11.90;8.47;;;6.30;99.90;;;;;;5000905;28;20230;-69
2022/11/27 07:28:46;;;;;;;19.50;9.03;;;6.30;99.90;;;;;;5001576;28;20180;-69
2022/11/27 07:31:14;;;;;;;10.83;8.20;;;6.40;99.90;;;;;;4999971;28;20211;-69
2022/11/27 07:33:40;;;;;;;10.10;7.67;;;6.40;99.90;;;;;;5005144;28;20184;-70
2022/11/27 07:36:12;;;;;;;12.30;7.87;;;6.40;99.90;;;;;;4997362;28;20173;-70
2022/11/27 07:38:38;;;;;;;11.97;7.70;;;6.40;99.90;;;;;;5009017;28;20187;-74
2022/11/27 07:41:04;;;;;;;9.50;8.37;;;6.40;99.90;;;;;;4990356;28;20212;-74
2022/11/27 07:43:32;;;;;;;8.80;7.60;;;6.50;99.90;;;;;;4983455;28;20579;-71
2022/11/27 07:45:58;;;;;;;11.40;7.70;;;6.50;99.90;;;;;;5004524;28;20265;-70
2022/11/27 07:48:24;;;;;;;11.23;8.37;;;6.50;99.90;;;;;;4993206;28;20601;-70
2022/11/27 07:50:50;;;;;;;10.23;8.17;;;6.50;99.90;;;;;;5011122;28;20231;-70
2022/11/27 07:53:16;;;;;;;11.20;7.87;;;6.50;99.90;;;;;;5001825;28;20235;-69
2022/11/27 07:55:41;;;;;;;12.17;8.43;;;6.60;99.90;;;;;;4999242;28;20281;-69
2022/11/27 07:58:08;;;;;;;14.83;8.63;;;6.50;99.90;;;;;;5014433;28;20188;-69
2022/11/27 08:00:34;;;;;;;9.27;7.80;;;6.60;99.90;;;;;;5010800;28;20233;-70
2022/11/27 08:03:00;;;;;;;11.20;8.00;;;6.60;99.90;;;;;;5008636;28;20250;-69
2022/11/27 08:05:40;;;;;;;10.70;7.73;;;6.60;99.90;;;;;;5015088;28;20156;-69
2022/11/27 08:08:09;;;;;;;11.07;7.83;;;6.70;99.90;;;;;;4997363;28;20246;-69
2022/11/27 08:10:38;;;;;;;11.07;7.27;;;6.70;99.90;;;;;;5027103;28;20207;-69
2022/11/27 08:13:07;;;;;;;11.20;8.20;;;6.80;99.90;;;;;;5033389;28;20190;-70
2022/11/27 08:15:35;;;;;;;8.33;7.40;;;6.80;99.90;;;;;;5016762;28;20183;-70
2022/11/27 08:18:07;;;;;;;16.17;7.90;;;6.80;99.90;;;;;;5034381;28;20257;-69
2022/11/27 08:20:34;;;;;;;10.13;7.60;;;6.90;99.90;;;;;;5034407;28;20207;-69
2022/11/27 08:23:03;;;;;;;9.70;8.03;;;6.90;99.90;;;;;;5034581;28;20199;-70
2022/11/27 08:25:42;;;;;;;14.67;8.10;;;6.90;99.90;;;;;;5033171;28;20198;-70
2022/11/27 08:28:13;;;;;;;13.17;7.37;;;6.90;99.90;;;;;;5031346;28;20183;-69
2022/11/27 08:30:54;;;;;;;11.73;8.30;;;6.90;99.90;;;;;;5033098;28;20199;-70
2022/11/27 08:33:21;;;;;;;8.00;7.20;;;6.90;99.90;;;;;;5033080;28;20259;-68
2022/11/27 08:35:49;;;;;;;11.67;8.57;;;6.90;99.90;;;;;;5034445;28;20262;-68
2022/11/27 08:38:15;;;;;;;11.83;7.70;;;6.90;99.90;;;;;;5034580;28;20542;-69
2022/11/27 08:40:40;;;;;;;10.30;7.40;;;6.90;99.90;;;;;;5033082;28;20282;-68
2022/11/27 08:43:06;;;;;;;11.80;7.13;;;7.00;99.90;;;;;;5034051;28;20210;-68
2022/11/27 08:45:32;;;;;;;12.60;7.60;;;7.00;99.90;;;;;;5034274;28;20197;-67
2022/11/27 08:47:58;;;;;;;8.63;7.47;;;7.10;99.90;;;;;;5034256;28;20258;-69
2022/11/27 08:50:24;;;;;;;9.87;7.20;;;7.20;99.90;;;;;;5022358;28;20648;-68
2022/11/27 08:52:50;;;;;;;10.93;6.97;;;7.30;99.90;;;;;;5026091;28;20218;-67
2022/11/27 08:55:16;;;;;;;12.03;7.50;;;7.40;99.90;;;;;;5025219;28;20183;-67
2022/11/27 08:57:41;;;;;;;8.80;7.90;;;7.50;99.90;;;;;;5034054;28;20179;-68
2022/11/27 09:00:09;;;;;;;8.43;7.23;;;7.50;99.90;;;;;;5032303;28;20801;-67
2022/11/27 09:02:34;;;;;;;10.83;7.83;;;7.70;99.90;;;;;;5032559;28;20671;-68
2022/11/27 09:05:01;;;;;;;9.53;6.97;;;7.70;99.90;;;;;;5033563;28;20199;-68
2022/11/27 09:07:27;;;;;;;9.73;6.97;;;7.80;99.90;;;;;;5033676;28;20167;-67
2022/11/27 09:09:53;;;;;;;11.83;7.33;;;7.80;99.90;;;;;;5032115;28;20224;-68
2022/11/27 09:12:18;;;;;;;7.60;6.80;;;7.80;99.90;;;;;;5032818;28;20253;-68
2022/11/27 09:14:44;;;;;;;7.67;6.63;;;7.80;99.90;;;;;;5033600;28;20202;-68
2022/11/27 09:17:10;;;;;;;10.07;7.27;;;7.80;99.90;;;;;;5032435;28;20179;-68
2022/11/27 09:19:35;;;;;;;9.00;6.10;;;7.80;99.90;;;;;;5033489;28;20204;-68
2022/11/27 09:22:01;;;;;;;8.97;6.37;;;7.80;99.90;;;;;;5033013;28;20655;-68
2022/11/27 09:24:27;;;;;;;9.20;6.20;;;7.80;99.90;;;;;;5034065;28;20660;-68
2022/11/27 09:26:53;;;;;;;10.63;6.37;;;7.90;99.90;;;;;;5033453;28;20183;-67
2022/11/27 09:29:18;;;;;;;8.63;6.27;;;7.90;99.90;;;;;;5033488;28;20190;-68
2022/11/27 09:31:44;;;;;;;9.67;6.90;;;7.90;99.90;;;;;;5033916;28;20257;-67
2022/11/27 09:34:10;;;;;;;7.53;6.10;;;8.00;99.90;;;;;;5031999;28;20179;-68
2022/11/27 09:36:36;;;;;;;11.47;6.30;;;8.00;99.90;;;;;;5033929;28;20243;-68
2022/11/27 09:39:02;;;;;;;6.73;6.03;;;8.00;99.90;;;;;;5033157;28;20587;-67
2022/11/27 09:42:01;;;;;;;8.33;6.20;;;8.10;99.90;;;;;;5031909;28;20183;-67
2022/11/27 09:44:38;;;;;;;7.77;5.93;;;8.10;99.90;;;;;;5033875;28;20318;-67
2022/11/27 09:47:13;;;;;;;7.00;5.90;;;8.10;99.90;;;;;;5033713;28;20151;-68
2022/11/27 09:50:01;;;;;;;6.60;6.00;;;8.30;99.90;;;;;;5033350;28;20194;-68
2022/11/27 09:52:59;;;;;;;6.47;5.87;;;8.30;99.90;;;;;;5033597;28;20191;-68
2022/11/27 09:55:32;;;;;;;10.03;5.40;;;8.30;99.90;;;;;;4989684;28;20667;-68
2022/11/27 09:58:06;;;;;;;7.00;5.90;;;8.30;99.90;;;;;;5033289;28;20175;-68
2022/11/27 10:00:32;;;;;;;6.33;5.73;;;8.30;99.90;;;;;;5031908;28;20194;-68
2022/11/27 10:02:59;;;;;;;6.23;5.47;;;8.40;99.90;;;;;;5033395;28;20225;-68
2022/11/27 10:05:32;;;;;;;6.20;5.60;;;8.40;99.90;;;;;;5033406;28;20175;-68
2022/11/27 10:08:23;;;;;;;7.57;5.30;;;8.40;99.90;;;;;;5033402;28;20242;-68
2022/11/27 10:11:10;;;;;;;7.73;5.77;;;8.40;99.90;;;;;;5014277;28;20576;-68
2022/11/27 10:13:45;;;;;;;7.57;5.47;;;8.50;99.90;;;;;;5013298;28;20202;-68
2022/11/27 10:16:13;;;;;;;7.97;5.47;;;8.50;99.90;;;;;;4996111;28;20167;-68
2022/11/27 10:18:59;;;;;;;6.27;5.23;;;8.50;99.90;;;;;;5015004;28;20559;-69
2022/11/27 10:21:53;;;;;;;7.97;5.33;;;8.60;99.90;;;;;;5014035;28;20171;-70
2022/11/27 10:24:35;;;;;;;5.90;5.40;;;8.60;99.90;;;;;;5013489;28;20196;-71
2022/11/27 10:27:08;;;;;;;6.60;5.53;;;8.60;99.90;;;;;;5013364;28;20171;-70
2022/11/27 10:29:46;;;;;;;5.77;5.13;;;8.60;99.90;;;;;;5013770;28;20188;-70
2022/11/27 10:32:18;;;;;;;5.97;4.87;;;8.70;99.90;;;;;;5013965;28;20160;-70
2022/11/27 10:34:53;;;;;;;5.37;4.87;;;8.70;99.90;;;;;;5016291;28;20652;-70
2022/11/27 10:37:24;;;;;;;7.37;4.90;;;8.70;99.90;;;;;;5015444;28;20703;-70
2022/11/27 10:39:58;;;;;;;7.30;5.20;;;8.70;99.90;;;;;;4998918;28;20211;-70
2022/11/27 10:42:36;;;;;;;5.17;4.67;;;8.80;99.90;;;;;;5015442;28;20186;-70
2022/11/27 10:45:20;;;;;;;6.07;5.43;;;9.00;99.90;;;;;;5016990;28;20196;-70
2022/11/27 10:47:47;;;;;;;5.77;4.60;;;9.00;99.90;;;;;;5016709;28;20204;-70
2022/11/27 10:50:17;;;;;;;7.60;4.60;;;9.10;99.90;;;;;;5016421;28;20191;-70
2022/11/27 10:52:58;;;;;;;7.73;5.30;;;9.10;99.90;;;;;;5017015;28;20508;-70
2022/11/27 10:55:42;;;;;;;6.80;4.50;;;9.20;99.90;;;;;;5016717;28;20183;-70
2022/11/27 10:58:35;;;;;;;5.00;4.60;;;9.20;99.90;;;;;;5017070;28;20230;-70
2022/11/27 11:01:07;;;;;;;5.67;4.80;;;9.30;99.90;;;;;;5018268;28;20199;-68
2022/11/27 11:03:33;;;;;;;4.97;4.47;;;9.30;99.90;;;;;;4998757;28;20553;-68
2022/11/27 11:06:04;;;;;;;5.50;5.00;;;9.40;99.90;;;;;;5016866;28;20181;-68
2022/11/27 11:08:31;;;;;;;6.00;4.70;;;9.40;99.90;;;;;;5016645;28;20213;-68
2022/11/27 11:11:00;;;;;;;6.03;4.63;;;9.40;99.90;;;;;;5016217;28;20275;-68
2022/11/27 11:13:32;;;;;;;4.97;4.50;;;9.40;99.90;;;;;;5016275;28;20194;-68
2022/11/27 11:16:14;;;;;;;5.00;4.60;;;9.40;99.90;;;;;;5016488;28;20243;-68
2022/11/27 11:18:45;;;;;;;6.37;4.40;;;9.50;99.90;;;;;;5017935;28;20532;-70
2022/11/27 11:21:22;;;;;;;7.37;5.07;;;9.50;99.90;;;;;;5000446;28;20227;-68
2022/11/27 11:24:00;;;;;;;7.13;5.00;;;9.50;99.90;;;;;;4999395;28;20279;-71
2022/11/27 11:26:39;;;;;;;5.27;4.77;;;9.50;99.90;;;;;;5018527;28;20175;-71
2022/11/27 11:29:24;;;;;;;8.37;5.13;;;9.50;99.90;;;;;;5017370;28;20160;-68
2022/11/27 11:31:50;;;;;;;6.63;5.13;;;9.40;99.90;;;;;;5017718;28;20168;-68
2022/11/27 11:34:27;;;;;;;5.20;4.47;;;9.40;99.90;;;;;;5014755;28;20183;-67
2022/11/27 11:37:01;;;;;;;5.30;4.53;;;9.40;99.90;;;;;;5015633;28;20686;-67
2022/11/27 11:39:30;;;;;;;4.93;4.53;;;9.40;99.90;;;;;;5015409;28;20219;-67
2022/11/27 11:41:56;;;;;;;4.73;4.33;;;9.30;99.90;;;;;;4997710;28;20687;-68
2022/11/27 11:44:50;;;;;;;5.07;4.57;;;9.30;99.90;;;;;;5015044;28;20210;-67
2022/11/27 11:47:26;;;;;;;5.63;4.60;;;9.40;99.90;;;;;;4988659;28;20191;-67
2022/11/27 11:49:53;;;;;;;6.23;4.33;;;9.40;99.90;;;;;;4997713;28;20287;-67
2022/11/27 11:52:53;;;;;;;5.10;4.50;;;9.30;99.90;;;;;;5012897;28;20230;-67
2022/11/27 11:55:26;;;;;;;4.63;4.20;;;9.30;99.90;;;;;;5009883;28;20645;-67
2022/11/27 11:58:10;;;;;;;7.87;4.67;;;9.40;99.90;;;;;;5009317;28;20200;-68
2022/11/27 12:00:46;;;;;;;5.10;4.60;;;9.40;99.90;;;;;;5005502;28;20200;-71
2022/11/27 12:03:34;;;;;;;6.50;4.50;;;9.50;99.90;;;;;;4989058;28;20232;-67
2022/11/27 12:06:12;;;;;;;4.60;4.20;;;9.50;99.90;;;;;;5011818;28;20641;-68
2022/11/27 12:08:46;;;;;;;6.13;4.53;;;9.60;99.90;;;;;;5010441;28;20657;-68
2022/11/27 12:11:18;;;;;;;5.20;4.70;;;9.60;99.90;;;;;;4997098;28;20208;-68
2022/11/27 12:14:10;;;;;;;5.80;4.37;;;9.60;99.90;;;;;;5007280;28;20192;-67
2022/11/27 12:17:12;;;;;;;4.27;3.97;;;9.70;99.90;;;;;;5006251;28;20270;-67
2022/11/27 12:20:18;;;;;;;4.70;4.30;;;9.70;99.90;;;;;;5002218;28;21594;-68
2022/11/27 12:23:14;;;;;;;6.23;4.50;;;9.80;99.90;;;;;;4996647;28;20184;-73
2022/11/27 12:26:05;;;;;;;6.67;4.00;;;9.80;99.90;;;;;;5000035;28;20256;-68
2022/11/27 12:28:52;;;;;;;5.30;3.83;;;9.80;99.90;;;;;;4999776;28;21665;-68
2022/11/27 12:31:20;;;;;;;4.07;3.67;;;9.90;99.90;;;;;;5012952;28;20196;-69
2022/11/27 12:34:08;;;;;;;4.73;3.87;;;9.90;99.90;;;;;;5000432;28;20568;-69
2022/11/27 12:36:42;;;;;;;4.07;3.70;;;9.90;99.90;;;;;;5013611;28;20194;-69
2022/11/27 12:39:26;;;;;;;5.67;4.50;;;9.90;99.90;;;;;;5003615;28;20645;-69
2022/11/27 12:42:23;;;;;;;4.77;3.90;;;10.00;99.90;;;;;;5005908;28;20184;-69
2022/11/27 12:45:19;;;;;;;4.00;3.70;;;10.00;99.90;;;;;;5008201;28;20215;-69
2022/11/27 12:47:57;;;;;;;4.10;3.77;;;10.10;99.90;;;;;;4998098;28;20253;-69
2022/11/27 12:50:43;;;;;;;5.23;4.07;;;10.00;99.90;;;;;;4994135;28;20235;-68
2022/11/27 12:53:24;;;;;;;4.50;3.70;;;10.00;99.90;;;;;;5009133;28;20192;-67
2022/11/27 12:55:58;;;;;;;4.07;3.67;;;10.10;99.90;;;;;;4988847;28;21683;-68
2022/11/27 12:58:38;;;;;;;5.37;4.03;;;10.10;99.90;;;;;;5000359;28;20669;-70
2022/11/27 13:01:19;;;;;;;5.17;3.70;;;10.10;99.90;;;;;;4996072;28;20243;-68
2022/11/27 13:04:03;;;;;;;4.90;3.90;;;10.10;99.90;;;;;;4977225;28;20664;-68
2022/11/27 13:06:35;;;;;;;4.27;3.90;;;10.10;99.90;;;;;;4994980;28;20653;-68
2022/11/27 13:09:11;;;;;;;3.97;3.67;;;10.10;99.90;;;;;;5003597;28;20639;-67
2022/11/27 13:11:39;;;;;;;7.23;4.10;;;10.10;99.90;;;;;;4996963;28;20171;-68
2022/11/27 13:14:19;;;;;;;4.47;4.07;;;10.10;99.90;;;;;;5014759;28;20251;-69